»·PEaware :: N45DM KDEN-KLAS

N45DM :: KDEN-KLAS

FLIGHT INFORMATION

Flight Status: Arrived
Operator: Privately registered:
United States
More flights under this callsign
Pilot: Mike H. (17104)
Aircraft: GATES LEARJET LEARJET 35/36
(LJ35)
More flights by this aircraft type
Origin: KDEN Denver Intl
United States
Destination: KLAS McCarran Intl
United States
More flights between these airports :: More routes between these airports
Route: +ROCKI3 DVC GRNPA2
File this flight plan on PilotEdge
Remarks: Year old database (Flight1 GTN)
Altitude:
(Current/Filed)
40,000ft
Speed:
(Current/Filed)
425kts
Departed: 02-Jan-18 04:45 PM
Arrived: 02-Jan-18 06:34 PM
Distance/Time
Traveled:
546nm/1:49
Distance/Time
To Go:
Arrived

Flight Plot

Page will automatically refresh every two minutes.

Flight plan parsing failed; only flown route is shown


Map Options




Map Legend


Flown Route
Filed Route
Departure Airport
Arrival Airport
Navaid (VOR, NDB)
Fix

Horizontal Profiles

Position Reports

Time Latitude Longitude Heading Altitude Ground
Speed
02-Jan-18 16:16 39.838841 -104.664725 0 5433ft 0kts
02-Jan-18 16:17 39.838842 -104.664725 0 5433ft 0kts
02-Jan-18 16:18 39.838843 -104.664725 0 5433ft 0kts
02-Jan-18 16:19 39.838844 -104.664725 0 5433ft 0kts
02-Jan-18 16:20 39.838845 -104.664725 0 5433ft 0kts
02-Jan-18 16:21 39.838846 -104.664725 0 5433ft 0kts
02-Jan-18 16:22 39.838848 -104.664725 0 5433ft 0kts
02-Jan-18 16:23 39.838849 -104.664725 0 5433ft 0kts
02-Jan-18 16:24 39.838850 -104.664725 0 5433ft 0kts
02-Jan-18 16:25 39.838851 -104.664725 0 5433ft 0kts
02-Jan-18 16:26 39.838852 -104.664725 0 5433ft 0kts
02-Jan-18 16:27 39.838853 -104.664725 0 5433ft 0kts
02-Jan-18 16:28 39.838854 -104.664725 0 5433ft 0kts
02-Jan-18 16:29 39.838855 -104.664725 0 5433ft 0kts
02-Jan-18 16:30 39.838856 -104.664725 0 5433ft 0kts
02-Jan-18 16:31 39.838857 -104.664725 0 5433ft 0kts
02-Jan-18 16:32 39.838858 -104.664725 0 5433ft 0kts
02-Jan-18 16:33 39.838859 -104.664725 0 5433ft 0kts
02-Jan-18 16:34 39.838860 -104.664725 0 5433ft 0kts
02-Jan-18 16:35 39.838861 -104.664725 0 5433ft 0kts
02-Jan-18 16:36 39.838862 -104.664725 0 5433ft 0kts
02-Jan-18 16:37 39.838863 -104.664725 0 5433ft 0kts
02-Jan-18 16:38 39.838864 -104.664725 0 5433ft 0kts
02-Jan-18 16:39 39.838865 -104.664725 0 5433ft 0kts
02-Jan-18 16:40 39.838866 -104.664725 0 5433ft 0kts
02-Jan-18 16:41 39.838867 -104.664725 0 5433ft 0kts
02-Jan-18 16:42 39.838869 -104.664725 0 5433ft 0kts
02-Jan-18 16:43 39.838870 -104.664725 0 5433ft 0kts
02-Jan-18 16:44 39.838871 -104.664725 0 5433ft 0kts
02-Jan-18 16:45 39.838872 -104.664725 0 5433ft 0kts
02-Jan-18 16:46 39.838873 -104.664725 0 5433ft 0kts
02-Jan-18 16:47 39.838874 -104.664725 0 5433ft 0kts
02-Jan-18 16:48 39.838875 -104.664725 0 5434ft 0kts
02-Jan-18 16:49 39.838876 -104.664725 0 5434ft 0kts
02-Jan-18 16:50 39.840676 -104.662561 15 5434ft 13kts
02-Jan-18 16:51 39.846857 -104.662417 359 5434ft 42kts
02-Jan-18 16:52 39.851168 -104.662436 358 5434ft 13kts
02-Jan-18 16:53 39.859202 -104.662333 1 5434ft 20kts
02-Jan-18 16:54 39.861001 -104.661261 90 5434ft 0kts
02-Jan-18 16:55 39.861001 -104.661260 90 5434ft 0kts
02-Jan-18 16:56 39.861001 -104.661258 90 5434ft 0kts
02-Jan-18 16:57 39.861000 -104.660546 90 5434ft 15kts
02-Jan-18 16:58 39.851950 -104.660289 178 5441ft 149kts
02-Jan-18 16:59 39.804815 -104.685395 240 8858ft 255kts
02-Jan-18 17:00 39.779683 -104.775294 254 12118ft 286kts
02-Jan-18 17:01 39.753627 -104.873444 258 15584ft 295kts
02-Jan-18 17:02 39.726047 -104.977946 258 19898ft 315kts
02-Jan-18 17:03 39.694596 -105.096279 256 21769ft 389kts
02-Jan-18 17:04 39.663728 -105.211074 256 24385ft 402kts
02-Jan-18 17:05 39.627040 -105.347085 256 27483ft 393kts
02-Jan-18 17:06 39.591722 -105.477428 256 30494ft 375kts
02-Jan-18 17:07 39.557165 -105.604460 256 32657ft 371kts
02-Jan-18 17:08 39.522942 -105.728320 257 34860ft 356kts
02-Jan-18 17:09 39.490394 -105.845581 258 37048ft 335kts
02-Jan-18 17:10 39.459583 -105.956049 259 39046ft 320kts
02-Jan-18 17:11 39.429576 -106.063378 260 40379ft 323kts
02-Jan-18 17:12 39.397092 -106.179146 259 40434ft 363kts
02-Jan-18 17:13 39.360641 -106.308102 258 40444ft 396kts
02-Jan-18 17:14 39.322116 -106.443445 258 40450ft 401kts
02-Jan-18 17:15 39.283821 -106.577436 258 40455ft 395kts
02-Jan-18 17:16 39.245476 -106.709650 255 40475ft 394kts
02-Jan-18 17:17 39.178681 -106.825080 242 40485ft 399kts
02-Jan-18 17:18 39.110312 -106.935958 243 40485ft 389kts
02-Jan-18 17:19 39.043459 -107.044125 243 40480ft 386kts
02-Jan-18 17:20 38.976336 -107.152346 243 40486ft 392kts
02-Jan-18 17:21 38.906953 -107.263774 242 40495ft 405kts
02-Jan-18 17:22 38.835839 -107.377554 242 40493ft 406kts
02-Jan-18 17:23 38.766954 -107.487230 243 40482ft 384kts
02-Jan-18 17:24 38.701139 -107.591944 244 40489ft 372kts
02-Jan-18 17:25 38.636362 -107.694613 244 40491ft 370kts
02-Jan-18 17:26 38.571063 -107.797723 244 40502ft 378kts
02-Jan-18 17:27 38.503934 -107.903368 244 40507ft 388kts
02-Jan-18 17:28 38.432857 -108.010088 242 40512ft 399kts
02-Jan-18 17:29 38.360767 -108.117621 243 40497ft 397kts
02-Jan-18 17:30 38.290539 -108.222130 243 40487ft 378kts
02-Jan-18 17:31 38.222845 -108.322757 243 40478ft 374kts
02-Jan-18 17:32 38.154859 -108.423560 243 40476ft 375kts
02-Jan-18 17:33 38.098216 -108.507221 243 40469ft 375kts
02-Jan-18 17:34 38.018535 -108.624592 243 40448ft 376kts
02-Jan-18 17:35 37.950272 -108.724700 243 40430ft 376kts
02-Jan-18 17:36 37.893364 -108.807945 243 40431ft 375kts
02-Jan-18 17:37 37.824902 -108.907931 243 40423ft 373kts
02-Jan-18 17:38 37.782474 -109.038021 263 40435ft 339kts
02-Jan-18 17:39 37.754325 -109.152045 263 40438ft 338kts
02-Jan-18 17:40 37.730955 -109.246287 262 40445ft 337kts
02-Jan-18 17:41 37.698215 -109.377546 262 40452ft 336kts
02-Jan-18 17:42 37.674796 -109.471293 262 40446ft 337kts
02-Jan-18 17:43 37.646350 -109.584297 262 40462ft 336kts
02-Jan-18 17:44 37.617945 -109.696412 262 40458ft 336kts
02-Jan-18 17:45 37.589484 -109.808887 262 40459ft 336kts
02-Jan-18 17:46 37.561079 -109.920103 262 40455ft 335kts
02-Jan-18 17:47 37.532249 -110.032590 261 40429ft 336kts
02-Jan-18 17:48 37.503418 -110.144726 261 40447ft 335kts
02-Jan-18 17:49 37.474645 -110.256312 261 40443ft 335kts
02-Jan-18 17:50 37.445606 -110.368240 261 40442ft 335kts
02-Jan-18 17:51 37.416558 -110.479583 261 40442ft 335kts
02-Jan-18 17:52 37.387450 -110.590885 261 40440ft 335kts
02-Jan-18 17:53 37.358129 -110.702401 261 40436ft 335kts
02-Jan-18 17:54 37.328773 -110.813571 260 40417ft 335kts
02-Jan-18 17:55 37.299223 -110.924994 260 40422ft 335kts
02-Jan-18 17:56 37.269678 -111.035792 260 40419ft 333kts
02-Jan-18 17:57 37.240514 -111.144874 260 40413ft 327kts
02-Jan-18 17:58 37.211344 -111.253501 260 40411ft 331kts
02-Jan-18 17:59 37.181542 -111.364027 259 40412ft 343kts
02-Jan-18 18:00 37.150210 -111.479701 259 40410ft 353kts
02-Jan-18 18:01 37.118157 -111.597442 259 40401ft 355kts
02-Jan-18 18:02 37.087061 -111.711043 259 40395ft 339kts
02-Jan-18 18:03 37.056811 -111.821128 259 40396ft 322kts
02-Jan-18 18:04 37.028269 -111.924670 259 40399ft 308kts
02-Jan-18 18:05 36.999215 -112.029969 258 40413ft 339kts
02-Jan-18 18:06 36.966952 -112.146054 258 40422ft 361kts
02-Jan-18 18:07 36.934023 -112.263724 257 40406ft 352kts
02-Jan-18 18:08 36.902415 -112.376494 258 40414ft 336kts
02-Jan-18 18:09 36.881797 -112.486350 270 40416ft 318kts
02-Jan-18 18:10 36.875757 -112.596332 269 40408ft 315kts
02-Jan-18 18:11 36.869595 -112.705254 269 40411ft 316kts
02-Jan-18 18:12 36.863243 -112.815786 269 40417ft 318kts
02-Jan-18 18:13 36.856652 -112.928505 269 39683ft 337kts
02-Jan-18 18:14 36.849697 -113.044667 268 38619ft 327kts
02-Jan-18 18:15 36.842915 -113.156939 268 36453ft 324kts
02-Jan-18 18:16 36.836012 -113.269220 267 34144ft 325kts
02-Jan-18 18:17 36.828945 -113.382359 267 31788ft 329kts
02-Jan-18 18:18 36.821483 -113.500557 266 29295ft 362kts
02-Jan-18 18:19 36.782458 -113.624870 243 26790ft 393kts
02-Jan-18 18:20 36.730746 -113.741044 243 24467ft 403kts
02-Jan-18 18:21 36.673115 -113.869158 243 24384ft 414kts
02-Jan-18 18:22 36.621159 -113.984093 243 22920ft 348kts
02-Jan-18 18:23 36.576883 -114.081826 242 20612ft 306kts
02-Jan-18 18:24 36.535984 -114.171946 242 18314ft 310kts
02-Jan-18 18:25 36.491734 -114.269035 241 15627ft 318kts
02-Jan-18 18:26 36.449463 -114.361530 241 12830ft 301kts
02-Jan-18 18:27 36.408447 -114.450393 237 12003ft 286kts
02-Jan-18 18:28 36.342739 -114.494427 189 12004ft 277kts
02-Jan-18 18:29 36.265388 -114.517629 207 12007ft 291kts
02-Jan-18 18:30 36.204862 -114.581829 212 11598ft 280kts
02-Jan-18 18:31 36.139515 -114.631697 210 10099ft 271kts
02-Jan-18 18:32 36.075969 -114.680316 216 8237ft 264kts
02-Jan-18 18:33 36.069067 -114.758212 291 6359ft 233kts
02-Jan-18 18:34 36.075275 -114.842304 268 5024ft 243kts
02-Jan-18 18:35 36.073863 -114.911612 271 4998ft 165kts
02-Jan-18 18:36 36.073814 -114.969828 271 4688ft 169kts
02-Jan-18 18:37 36.073803 -115.026246 270 3785ft 163kts
02-Jan-18 18:38 36.073720 -115.079865 270 2946ft 155kts
02-Jan-18 18:39 36.073618 -115.126336 270 2215ft 123kts
02-Jan-18 18:40 36.074042 -115.144173 315 2184ft 5kts
02-Jan-18 18:41 36.074197 -115.144447 291 2184ft 0kts
02-Jan-18 18:42 36.074809 -115.145947 312 2184ft 11kts
02-Jan-18 18:43 36.077004 -115.146526 355 2184ft 0kts
02-Jan-18 18:44 36.077462 -115.146590 344 2184ft 7kts
02-Jan-18 18:45 36.077795 -115.151874 269 2184ft 16kts
02-Jan-18 18:46 36.077940 -115.155960 269 2184ft 8kts
02-Jan-18 18:47 36.077920 -115.161537 268 2184ft 23kts
02-Jan-18 18:48 36.077958 -115.166232 266 2184ft 15kts
02-Jan-18 18:49 36.078103 -115.170499 317 2184ft 8kts
02-Jan-18 18:50 36.081366 -115.169482 297 2184ft 4kts
02-Jan-18 18:51 36.080532 -115.170886 270 2184ft 0kts

Navigation Log

Ident Type
Flight plan parsing failed, navigation log unavailable